sensor_id;sensor_type;location;lat;lon;timestamp;pressure;altitude;pressure_sealevel;temperature;humidity
75247;BME280;63844;50.042;19.224;2023-08-30T00:00:46;99368.56;;;19.50;93.72
75247;BME280;63844;50.042;19.224;2023-08-30T00:02:21;99373.70;;;19.51;93.83
75247;BME280;63844;50.042;19.224;2023-08-30T00:03:59;99375.02;;;19.52;93.63
75247;BME280;63844;50.042;19.224;2023-08-30T00:05:39;99379.80;;;19.52;93.50
75247;BME280;63844;50.042;19.224;2023-08-30T00:07:25;99381.65;;;19.52;93.44
75247;BME280;63844;50.042;19.224;2023-08-30T00:09:42;99385.09;;;19.52;93.64
75247;BME280;63844;50.042;19.224;2023-08-30T00:11:17;99384.46;;;19.53;93.49
75247;BME280;63844;50.042;19.224;2023-08-30T00:12:56;99375.53;;;19.52;93.40
75247;BME280;63844;50.042;19.224;2023-08-30T00:14:52;99373.06;;;19.51;93.43
75247;BME280;63844;50.042;19.224;2023-08-30T00:16:35;99363.83;;;19.51;93.96
75247;BME280;63844;50.042;19.224;2023-08-30T00:19:01;99362.59;;;19.51;94.14
75247;BME280;63844;50.042;19.224;2023-08-30T00:21:32;99369.73;;;19.49;94.35
75247;BME280;63844;50.042;19.224;2023-08-30T00:23:17;99375.18;;;19.48;94.25
75247;BME280;63844;50.042;19.224;2023-08-30T00:25:01;99384.22;;;19.48;93.94
75247;BME280;63844;50.042;19.224;2023-08-30T00:26:58;99390.90;;;19.46;94.15
75247;BME280;63844;50.042;19.224;2023-08-30T00:28:33;99392.57;;;19.45;93.78
75247;BME280;63844;50.042;19.224;2023-08-30T00:30:09;99395.48;;;19.46;93.84
75247;BME280;63844;50.042;19.224;2023-08-30T00:31:45;99394.38;;;19.47;93.89
75247;BME280;63844;50.042;19.224;2023-08-30T00:33:21;99394.73;;;19.45;93.76
75247;BME280;63844;50.042;19.224;2023-08-30T00:35:25;99390.73;;;19.43;93.93
75247;BME280;63844;50.042;19.224;2023-08-30T00:37:17;99396.71;;;19.45;93.95
75247;BME280;63844;50.042;19.224;2023-08-30T00:38:53;99397.19;;;19.43;93.81
75247;BME280;63844;50.042;19.224;2023-08-30T00:40:37;99402.39;;;19.42;93.57
75247;BME280;63844;50.042;19.224;2023-08-30T00:42:32;99397.27;;;19.37;93.76
75247;BME280;63844;50.042;19.224;2023-08-30T00:44:31;99406.97;;;19.39;93.65
75247;BME280;63844;50.042;19.224;2023-08-30T00:49:00;99412.17;;;19.32;93.87
75247;BME280;63844;50.042;19.224;2023-08-30T00:51:09;99416.88;;;19.31;93.83
75247;BME280;63844;50.042;19.224;2023-08-30T00:53:05;99417.14;;;19.30;94.29
75247;BME280;63844;50.042;19.224;2023-08-30T00:54:42;99414.80;;;19.28;93.61
75247;BME280;63844;50.042;19.224;2023-08-30T00:56:18;99422.95;;;19.28;93.49
75247;BME280;63844;50.042;19.224;2023-08-30T00:57:53;99422.71;;;19.24;93.49
75247;BME280;63844;50.042;19.224;2023-08-30T00:59:29;99421.55;;;19.24;93.47
75247;BME280;63844;50.042;19.224;2023-08-30T01:01:10;99422.20;;;19.22;93.34
75247;BME280;63844;50.042;19.224;2023-08-30T01:02:45;99426.77;;;19.22;93.55
75247;BME280;63844;50.042;19.224;2023-08-30T01:04:21;99428.31;;;19.19;93.70
75247;BME280;63844;50.042;19.224;2023-08-30T01:05:58;99431.30;;;19.18;93.59
75247;BME280;63844;50.042;19.224;2023-08-30T01:07:34;99433.90;;;19.17;93.38
75247;BME280;63844;50.042;19.224;2023-08-30T01:09:09;99436.27;;;19.16;93.38
75247;BME280;63844;50.042;19.224;2023-08-30T01:10:52;99439.48;;;19.16;93.27
75247;BME280;63844;50.042;19.224;2023-08-30T01:12:35;99435.09;;;19.15;93.57
75247;BME280;63844;50.042;19.224;2023-08-30T01:14:16;99441.70;;;19.14;93.31
75247;BME280;63844;50.042;19.224;2023-08-30T01:15:54;99447.48;;;19.11;93.32
75247;BME280;63844;50.042;19.224;2023-08-30T01:17:30;99452.75;;;19.11;93.33
75247;BME280;63844;50.042;19.224;2023-08-30T01:19:35;99457.04;;;19.09;93.42
75247;BME280;63844;50.042;19.224;2023-08-30T01:21:28;99456.02;;;19.06;93.49
75247;BME280;63844;50.042;19.224;2023-08-30T01:23:07;99457.05;;;19.03;93.19
75247;BME280;63844;50.042;19.224;2023-08-30T01:27:09;99455.46;;;18.99;93.41
75247;BME280;63844;50.042;19.224;2023-08-30T01:28:44;99457.16;;;18.96;93.48
75247;BME280;63844;50.042;19.224;2023-08-30T01:30:20;99455.84;;;18.93;93.59
75247;BME280;63844;50.042;19.224;2023-08-30T01:31:58;99451.02;;;18.91;93.45
75247;BME280;63844;50.042;19.224;2023-08-30T01:33:34;99448.45;;;18.90;93.17
75247;BME280;63844;50.042;19.224;2023-08-30T01:35:10;99449.16;;;18.88;93.44
75247;BME280;63844;50.042;19.224;2023-08-30T01:36:49;99446.70;;;18.85;93.40
75247;BME280;63844;50.042;19.224;2023-08-30T01:38:28;99443.67;;;18.83;93.45
75247;BME280;63844;50.042;19.224;2023-08-30T01:40:05;99443.93;;;18.82;93.43
75247;BME280;63844;50.042;19.224;2023-08-30T01:41:42;99439.91;;;18.79;93.23
75247;BME280;63844;50.042;19.224;2023-08-30T01:43:20;99444.49;;;18.78;93.35
75247;BME280;63844;50.042;19.224;2023-08-30T01:44:58;99447.90;;;18.76;93.13
75247;BME280;63844;50.042;19.224;2023-08-30T01:46:36;99447.33;;;18.75;93.14
75247;BME280;63844;50.042;19.224;2023-08-30T01:48:23;99447.77;;;18.74;93.01
75247;BME280;63844;50.042;19.224;2023-08-30T01:49:59;99445.20;;;18.70;93.20
75247;BME280;63844;50.042;19.224;2023-08-30T01:51:35;99442.56;;;18.68;93.38
75247;BME280;63844;50.042;19.224;2023-08-30T01:53:14;99441.67;;;18.64;93.77
75247;BME280;63844;50.042;19.224;2023-08-30T01:54:59;99438.61;;;18.62;93.53
75247;BME280;63844;50.042;19.224;2023-08-30T01:57:08;99435.52;;;18.60;93.40
75247;BME280;63844;50.042;19.224;2023-08-30T01:58:43;99436.27;;;18.58;92.90
75247;BME280;63844;50.042;19.224;2023-08-30T02:00:19;99439.54;;;18.56;93.07
75247;BME280;63844;50.042;19.224;2023-08-30T02:01:56;99443.66;;;18.54;93.31
75247;BME280;63844;50.042;19.224;2023-08-30T02:06:03;99443.98;;;18.52;93.69
75247;BME280;63844;50.042;19.224;2023-08-30T02:08:19;99444.44;;;18.51;93.60
75247;BME280;63844;50.042;19.224;2023-08-30T02:11:14;99436.73;;;18.51;93.60
75247;BME280;63844;50.042;19.224;2023-08-30T02:12:55;99433.64;;;18.50;93.63
75247;BME280;63844;50.042;19.224;2023-08-30T02:17:28;99421.73;;;18.43;94.18
75247;BME280;63844;50.042;19.224;2023-08-30T02:20:03;99415.59;;;18.39;94.10
75247;BME280;63844;50.042;19.224;2023-08-30T02:22:23;99417.00;;;18.34;94.23
75247;BME280;63844;50.042;19.224;2023-08-30T02:24:39;99413.63;;;18.32;94.18
75247;BME280;63844;50.042;19.224;2023-08-30T02:26:27;99411.56;;;18.31;93.87
75247;BME280;63844;50.042;19.224;2023-08-30T02:28:13;99406.69;;;18.29;93.83
75247;BME280;63844;50.042;19.224;2023-08-30T02:30:21;99402.04;;;18.29;93.68
75247;BME280;63844;50.042;19.224;2023-08-30T02:33:01;99390.29;;;18.26;94.23
75247;BME280;63844;50.042;19.224;2023-08-30T02:34:49;99385.00;;;18.23;94.23
75247;BME280;63844;50.042;19.224;2023-08-30T02:37:28;99378.65;;;18.20;94.13
75247;BME280;63844;50.042;19.224;2023-08-30T02:40:11;99372.08;;;18.15;94.08
75247;BME280;63844;50.042;19.224;2023-08-30T02:41:51;99362.66;;;18.10;93.53
75247;BME280;63844;50.042;19.224;2023-08-30T02:43:36;99359.27;;;18.07;93.52
75247;BME280;63844;50.042;19.224;2023-08-30T02:45:44;99359.07;;;18.01;93.82
75247;BME280;63844;50.042;19.224;2023-08-30T02:47:24;99350.10;;;17.97;93.46
75247;BME280;63844;50.042;19.224;2023-08-30T02:49:03;99341.55;;;17.93;93.58
75247;BME280;63844;50.042;19.224;2023-08-30T02:51:09;99343.77;;;17.88;93.72
75247;BME280;63844;50.042;19.224;2023-08-30T02:52:48;99337.45;;;17.85;93.76
75247;BME280;63844;50.042;19.224;2023-08-30T02:54:58;99333.33;;;17.81;93.83
75247;BME280;63844;50.042;19.224;2023-08-30T02:57:19;99322.36;;;17.75;93.97
75247;BME280;63844;50.042;19.224;2023-08-30T02:59:26;99320.02;;;17.71;93.98
75247;BME280;63844;50.042;19.224;2023-08-30T03:01:18;99322.40;;;17.68;93.47
75247;BME280;63844;50.042;19.224;2023-08-30T03:03:25;99324.69;;;17.67;93.33
75247;BME280;63844;50.042;19.224;2023-08-30T03:05:04;99329.23;;;17.66;93.42
75247;BME280;63844;50.042;19.224;2023-08-30T03:06:40;99336.22;;;17.66;93.44
75247;BME280;63844;50.042;19.224;2023-08-30T03:08:48;99340.41;;;17.63;93.90
75247;BME280;63844;50.042;19.224;2023-08-30T03:10:27;99338.41;;;17.62;93.43
75247;BME280;63844;50.042;19.224;2023-08-30T03:12:07;99340.27;;;17.61;93.29
75247;BME280;63844;50.042;19.224;2023-08-30T03:13:49;99343.09;;;17.57;93.59
75247;BME280;63844;50.042;19.224;2023-08-30T03:15:32;99342.88;;;17.52;93.67
75247;BME280;63844;50.042;19.224;2023-08-30T03:17:13;99343.45;;;17.49;93.65
75247;BME280;63844;50.042;19.224;2023-08-30T03:18:53;99344.84;;;17.46;93.87
75247;BME280;63844;50.042;19.224;2023-08-30T03:20:58;99349.45;;;17.38;94.22
75247;BME280;63844;50.042;19.224;2023-08-30T03:22:38;99348.38;;;17.34;94.08
75247;BME280;63844;50.042;19.224;2023-08-30T03:24:18;99346.34;;;17.31;94.03
75247;BME280;63844;50.042;19.224;2023-08-30T03:25:57;99352.44;;;17.31;94.17
75247;BME280;63844;50.042;19.224;2023-08-30T03:27:50;99356.05;;;17.33;94.13
75247;BME280;63844;50.042;19.224;2023-08-30T03:29:36;99353.69;;;17.33;94.20
75247;BME280;63844;50.042;19.224;2023-08-30T03:31:45;99346.34;;;17.35;94.40
75247;BME280;63844;50.042;19.224;2023-08-30T03:34:04;99342.44;;;17.35;94.51
75247;BME280;63844;50.042;19.224;2023-08-30T03:36:02;99343.90;;;17.36;94.63
75247;BME280;63844;50.042;19.224;2023-08-30T03:37:38;99350.05;;;17.37;94.50
75247;BME280;63844;50.042;19.224;2023-08-30T03:39:18;99351.79;;;17.38;94.55
75247;BME280;63844;50.042;19.224;2023-08-30T03:41:20;99345.69;;;17.39;94.52
75247;BME280;63844;50.042;19.224;2023-08-30T03:43:33;99351.89;;;17.37;94.61
75247;BME280;63844;50.042;19.224;2023-08-30T03:45:46;99356.41;;;17.37;94.71
75247;BME280;63844;50.042;19.224;2023-08-30T03:47:33;99358.16;;;17.37;94.76
75247;BME280;63844;50.042;19.224;2023-08-30T03:49:13;99355.67;;;17.37;94.76
75247;BME280;63844;50.042;19.224;2023-08-30T03:50:48;99357.85;;;17.36;94.50
75247;BME280;63844;50.042;19.224;2023-08-30T03:52:28;99356.98;;;17.36;94.60
75247;BME280;63844;50.042;19.224;2023-08-30T03:54:04;99352.02;;;17.34;94.76
75247;BME280;63844;50.042;19.224;2023-08-30T03:55:40;99351.96;;;17.32;94.85
75247;BME280;63844;50.042;19.224;2023-08-30T03:57:16;99348.54;;;17.31;94.76
75247;BME280;63844;50.042;19.224;2023-08-30T03:58:51;99349.31;;;17.27;94.76
75247;BME280;63844;50.042;19.224;2023-08-30T04:00:35;99348.29;;;17.25;94.82
75247;BME280;63844;50.042;19.224;2023-08-30T04:02:22;99344.95;;;17.22;94.68
75247;BME280;63844;50.042;19.224;2023-08-30T04:04:38;99351.58;;;17.20;94.91
75247;BME280;63844;50.042;19.224;2023-08-30T04:06:59;99358.61;;;17.18;94.89
75247;BME280;63844;50.042;19.224;2023-08-30T04:08:46;99353.17;;;17.16;94.76
75247;BME280;63844;50.042;19.224;2023-08-30T04:10:34;99356.64;;;17.16;94.72
75247;BME280;63844;50.042;19.224;2023-08-30T04:15:34;99354.07;;;17.16;95.14
75247;BME280;63844;50.042;19.224;2023-08-30T04:17:17;99356.06;;;17.20;94.85
75247;BME280;63844;50.042;19.224;2023-08-30T04:19:18;99360.31;;;17.22;94.74
75247;BME280;63844;50.042;19.224;2023-08-30T04:26:28;99360.30;;;17.41;95.22
75247;BME280;63844;50.042;19.224;2023-08-30T04:28:37;99354.79;;;17.47;95.03
75247;BME280;63844;50.042;19.224;2023-08-30T04:30:48;99349.73;;;17.51;94.98
75247;BME280;63844;50.042;19.224;2023-08-30T04:33:36;99352.29;;;17.53;95.09
75247;BME280;63844;50.042;19.224;2023-08-30T04:36:06;99353.56;;;17.55;95.39
75247;BME280;63844;50.042;19.224;2023-08-30T04:38:31;99353.80;;;17.58;95.64
75247;BME280;63844;50.042;19.224;2023-08-30T04:40:41;99353.06;;;17.58;95.15
75247;BME280;63844;50.042;19.224;2023-08-30T04:42:19;99355.41;;;17.60;95.38
75247;BME280;63844;50.042;19.224;2023-08-30T04:44:08;99354.80;;;17.61;95.03
75247;BME280;63844;50.042;19.224;2023-08-30T04:45:54;99358.33;;;17.63;95.25
75247;BME280;63844;50.042;19.224;2023-08-30T04:47:50;99359.91;;;17.65;94.91
75247;BME280;63844;50.042;19.224;2023-08-30T04:49:36;99362.16;;;17.68;94.60
75247;BME280;63844;50.042;19.224;2023-08-30T04:51:13;99358.13;;;17.69;94.62
75247;BME280;63844;50.042;19.224;2023-08-30T04:52:50;99363.92;;;17.70;94.55
75247;BME280;63844;50.042;19.224;2023-08-30T04:54:28;99366.91;;;17.71;94.50
75247;BME280;63844;50.042;19.224;2023-08-30T04:56:24;99369.90;;;17.72;94.71
75247;BME280;63844;50.042;19.224;2023-08-30T04:58:04;99372.04;;;17.73;94.53
75247;BME280;63844;50.042;19.224;2023-08-30T04:59:40;99375.56;;;17.75;94.45
75247;BME280;63844;50.042;19.224;2023-08-30T05:01:19;99385.52;;;17.76;94.39
75247;BME280;63844;50.042;19.224;2023-08-30T05:03:57;99393.45;;;17.77;94.34
75247;BME280;63844;50.042;19.224;2023-08-30T05:05:53;99392.58;;;17.77;94.74
75247;BME280;63844;50.042;19.224;2023-08-30T05:07:33;99389.05;;;17.79;94.60
75247;BME280;63844;50.042;19.224;2023-08-30T05:09:21;99393.14;;;17.79;94.98
75247;BME280;63844;50.042;19.224;2023-08-30T05:10:59;99396.22;;;17.81;94.40
75247;BME280;63844;50.042;19.224;2023-08-30T05:12:35;99401.75;;;17.82;94.43
75247;BME280;63844;50.042;19.224;2023-08-30T05:14:14;99407.16;;;17.84;94.27
75247;BME280;63844;50.042;19.224;2023-08-30T05:15:49;99404.39;;;17.85;94.27
75247;BME280;63844;50.042;19.224;2023-08-30T05:17:44;99408.07;;;17.84;94.56
75247;BME280;63844;50.042;19.224;2023-08-30T05:19:29;99410.36;;;17.85;94.57
75247;BME280;63844;50.042;19.224;2023-08-30T05:21:14;99411.92;;;17.85;94.33
75247;BME280;63844;50.042;19.224;2023-08-30T05:23:08;99415.72;;;17.87;94.43
75247;BME280;63844;50.042;19.224;2023-08-30T05:32:54;99431.50;;;17.90;94.54
75247;BME280;63844;50.042;19.224;2023-08-30T05:35:06;99433.43;;;17.93;94.41
75247;BME280;63844;50.042;19.224;2023-08-30T05:37:09;99433.23;;;17.93;94.46
75247;BME280;63844;50.042;19.224;2023-08-30T05:39:28;99439.98;;;17.93;94.72
75247;BME280;63844;50.042;19.224;2023-08-30T05:41:26;99441.27;;;17.93;94.38
75247;BME280;63844;50.042;19.224;2023-08-30T05:43:40;99437.79;;;17.94;94.37
75247;BME280;63844;50.042;19.224;2023-08-30T05:45:33;99436.27;;;17.97;94.31
75247;BME280;63844;50.042;19.224;2023-08-30T05:48:01;99436.06;;;17.99;94.51
75247;BME280;63844;50.042;19.224;2023-08-30T05:49:43;99440.92;;;18.01;94.28
75247;BME280;63844;50.042;19.224;2023-08-30T05:51:59;99446.11;;;18.01;94.27
75247;BME280;63844;50.042;19.224;2023-08-30T05:54:47;99455.18;;;18.00;94.03
75247;BME280;63844;50.042;19.224;2023-08-30T06:00:15;99452.73;;;17.99;94.22
75247;BME280;63844;50.042;19.224;2023-08-30T06:02:34;99456.42;;;18.00;94.35
75247;BME280;63844;50.042;19.224;2023-08-30T06:04:24;99457.27;;;18.01;94.21
75247;BME280;63844;50.042;19.224;2023-08-30T06:06:32;99455.02;;;17.98;94.01
75247;BME280;63844;50.042;19.224;2023-08-30T06:08:16;99452.68;;;17.98;94.21
75247;BME280;63844;50.042;19.224;2023-08-30T06:09:56;99450.16;;;17.98;94.34
75247;BME280;63844;50.042;19.224;2023-08-30T06:11:44;99452.25;;;18.01;93.90
75247;BME280;63844;50.042;19.224;2023-08-30T06:13:55;99452.13;;;18.00;93.84
75247;BME280;63844;50.042;19.224;2023-08-30T06:15:55;99454.15;;;18.01;94.17
75247;BME280;63844;50.042;19.224;2023-08-30T06:17:40;99454.74;;;18.03;94.08
75247;BME280;63844;50.042;19.224;2023-08-30T06:19:21;99453.16;;;18.02;94.16
75247;BME280;63844;50.042;19.224;2023-08-30T06:23:47;99445.96;;;18.09;93.97
75247;BME280;63844;50.042;19.224;2023-08-30T06:26:20;99446.58;;;18.10;93.77
75247;BME280;63844;50.042;19.224;2023-08-30T06:27:59;99444.17;;;18.08;94.07
75247;BME280;63844;50.042;19.224;2023-08-30T06:30:06;99440.80;;;18.08;93.94
75247;BME280;63844;50.042;19.224;2023-08-30T06:32:05;99442.38;;;18.09;94.13
75247;BME280;63844;50.042;19.224;2023-08-30T06:34:34;99441.40;;;18.10;94.19
75247;BME280;63844;50.042;19.224;2023-08-30T06:36:13;99447.38;;;18.11;93.71
75247;BME280;63844;50.042;19.224;2023-08-30T06:38:35;99443.36;;;18.10;93.61
75247;BME280;63844;50.042;19.224;2023-08-30T06:40:43;99445.69;;;18.08;93.84
75247;BME280;63844;50.042;19.224;2023-08-30T06:42:31;99444.90;;;18.09;93.93
75247;BME280;63844;50.042;19.224;2023-08-30T06:44:27;99446.15;;;18.11;93.84
75247;BME280;63844;50.042;19.224;2023-08-30T06:46:04;99445.61;;;18.10;93.69
75247;BME280;63844;50.042;19.224;2023-08-30T06:47:42;99449.09;;;18.10;93.68
75247;BME280;63844;50.042;19.224;2023-08-30T06:49:17;99445.36;;;18.09;93.82
75247;BME280;63844;50.042;19.224;2023-08-30T06:50:56;99443.52;;;18.10;93.80
75247;BME280;63844;50.042;19.224;2023-08-30T06:52:32;99443.71;;;18.10;94.04
75247;BME280;63844;50.042;19.224;2023-08-30T06:54:07;99445.63;;;18.08;93.96
75247;BME280;63844;50.042;19.224;2023-08-30T06:55:42;99445.77;;;18.07;93.71
75247;BME280;63844;50.042;19.224;2023-08-30T06:57:18;99446.65;;;18.07;93.63
75247;BME280;63844;50.042;19.224;2023-08-30T06:58:53;99445.44;;;18.09;93.69
75247;BME280;63844;50.042;19.224;2023-08-30T07:00:29;99449.41;;;18.10;93.59
75247;BME280;63844;50.042;19.224;2023-08-30T07:02:04;99450.02;;;18.09;93.47
75247;BME280;63844;50.042;19.224;2023-08-30T07:03:40;99455.23;;;18.09;93.12
75247;BME280;63844;50.042;19.224;2023-08-30T07:05:33;99456.72;;;18.09;93.03
75247;BME280;63844;50.042;19.224;2023-08-30T07:07:18;99460.30;;;18.08;93.01
75247;BME280;63844;50.042;19.224;2023-08-30T07:09:02;99456.91;;;18.08;92.80
75247;BME280;63844;50.042;19.224;2023-08-30T07:11:00;99454.76;;;18.09;93.05
75247;BME280;63844;50.042;19.224;2023-08-30T07:12:58;99449.38;;;18.07;93.20
75247;BME280;63844;50.042;19.224;2023-08-30T07:15:15;99454.79;;;18.08;93.46
75247;BME280;63844;50.042;19.224;2023-08-30T07:17:16;99458.95;;;18.10;93.33
75247;BME280;63844;50.042;19.224;2023-08-30T07:18:55;99459.29;;;18.10;93.14
75247;BME280;63844;50.042;19.224;2023-08-30T07:20:33;99461.30;;;18.07;93.09
75247;BME280;63844;50.042;19.224;2023-08-30T07:22:16;99462.77;;;18.05;93.08
75247;BME280;63844;50.042;19.224;2023-08-30T07:23:54;99465.01;;;18.06;93.18
75247;BME280;63844;50.042;19.224;2023-08-30T07:25:30;99464.71;;;18.07;93.11
75247;BME280;63844;50.042;19.224;2023-08-30T07:27:06;99463.96;;;18.10;93.17
75247;BME280;63844;50.042;19.224;2023-08-30T07:28:42;99464.81;;;18.10;93.18
75247;BME280;63844;50.042;19.224;2023-08-30T07:30:18;99462.90;;;18.12;93.22
75247;BME280;63844;50.042;19.224;2023-08-30T07:31:53;99459.52;;;18.13;93.19
75247;BME280;63844;50.042;19.224;2023-08-30T07:33:30;99462.25;;;18.14;93.18
75247;BME280;63844;50.042;19.224;2023-08-30T07:35:05;99460.44;;;18.15;93.34
75247;BME280;63844;50.042;19.224;2023-08-30T07:36:41;99457.66;;;18.16;93.27
75247;BME280;63844;50.042;19.224;2023-08-30T07:38:16;99461.05;;;18.16;93.09
75247;BME280;63844;50.042;19.224;2023-08-30T07:39:52;99455.73;;;18.15;93.20
75247;BME280;63844;50.042;19.224;2023-08-30T07:41:28;99458.08;;;18.15;93.54
75247;BME280;63844;50.042;19.224;2023-08-30T07:43:03;99454.83;;;18.14;93.33
75247;BME280;63844;50.042;19.224;2023-08-30T07:44:38;99453.85;;;18.14;93.28
75247;BME280;63844;50.042;19.224;2023-08-30T07:46:13;99454.04;;;18.14;93.38
75247;BME280;63844;50.042;19.224;2023-08-30T07:47:49;99452.46;;;18.14;93.47
75247;BME280;63844;50.042;19.224;2023-08-30T07:49:24;99456.64;;;18.11;93.20
75247;BME280;63844;50.042;19.224;2023-08-30T07:50:59;99455.84;;;18.10;93.35
75247;BME280;63844;50.042;19.224;2023-08-30T07:52:35;99458.92;;;18.08;93.54
75247;BME280;63844;50.042;19.224;2023-08-30T07:54:10;99458.35;;;18.06;93.50
75247;BME280;63844;50.042;19.224;2023-08-30T07:55:51;99460.61;;;18.07;93.64
75247;BME280;63844;50.042;19.224;2023-08-30T07:57:27;99462.20;;;18.07;94.02
75247;BME280;63844;50.042;19.224;2023-08-30T07:59:02;99464.59;;;18.07;93.93
75247;BME280;63844;50.042;19.224;2023-08-30T08:00:38;99467.70;;;18.06;94.01
75247;BME280;63844;50.042;19.224;2023-08-30T08:02:16;99468.45;;;18.05;93.90
75247;BME280;63844;50.042;19.224;2023-08-30T08:03:51;99472.76;;;18.06;93.99
75247;BME280;63844;50.042;19.224;2023-08-30T08:05:27;99472.97;;;18.03;94.33
75247;BME280;63844;50.042;19.224;2023-08-30T08:07:03;99470.16;;;18.02;94.59
75247;BME280;63844;50.042;19.224;2023-08-30T08:08:38;99473.10;;;18.02;94.27
75247;BME280;63844;50.042;19.224;2023-08-30T08:10:16;99471.04;;;18.03;94.45
75247;BME280;63844;50.042;19.224;2023-08-30T08:11:53;99471.99;;;18.02;94.77
75247;BME280;63844;50.042;19.224;2023-08-30T08:13:28;99468.38;;;18.02;94.89
75247;BME280;63844;50.042;19.224;2023-08-30T08:15:04;99465.45;;;18.03;94.94
75247;BME280;63844;50.042;19.224;2023-08-30T08:16:39;99459.10;;;18.02;94.65
75247;BME280;63844;50.042;19.224;2023-08-30T08:18:15;99458.04;;;18.00;95.19
75247;BME280;63844;50.042;19.224;2023-08-30T08:19:50;99461.49;;;17.99;94.69
75247;BME280;63844;50.042;19.224;2023-08-30T08:21:25;99462.17;;;17.96;94.41
75247;BME280;63844;50.042;19.224;2023-08-30T08:23:01;99464.50;;;17.92;94.28
75247;BME280;63844;50.042;19.224;2023-08-30T08:24:37;99465.10;;;17.89;94.55
75247;BME280;63844;50.042;19.224;2023-08-30T08:26:12;99460.45;;;17.87;94.87
75247;BME280;63844;50.042;19.224;2023-08-30T08:27:48;99461.00;;;17.87;95.14
75247;BME280;63844;50.042;19.224;2023-08-30T08:29:29;99462.16;;;17.88;94.95
75247;BME280;63844;50.042;19.224;2023-08-30T08:31:06;99454.81;;;17.86;94.85
75247;BME280;63844;50.042;19.224;2023-08-30T08:32:42;99455.02;;;17.85;94.58
75247;BME280;63844;50.042;19.224;2023-08-30T08:34:18;99454.44;;;17.84;94.70
75247;BME280;63844;50.042;19.224;2023-08-30T08:35:53;99455.20;;;17.82;95.20
75247;BME280;63844;50.042;19.224;2023-08-30T08:37:29;99456.52;;;17.81;95.04
75247;BME280;63844;50.042;19.224;2023-08-30T08:39:04;99454.62;;;17.80;94.80
75247;BME280;63844;50.042;19.224;2023-08-30T08:40:40;99455.59;;;17.81;94.74
75247;BME280;63844;50.042;19.224;2023-08-30T08:42:19;99449.20;;;17.83;94.69
75247;BME280;63844;50.042;19.224;2023-08-30T08:44:04;99446.58;;;17.84;94.42
75247;BME280;63844;50.042;19.224;2023-08-30T08:45:42;99443.64;;;17.85;94.67
75247;BME280;63844;50.042;19.224;2023-08-30T08:47:21;99441.17;;;17.86;94.58
75247;BME280;63844;50.042;19.224;2023-08-30T08:48:59;99444.36;;;17.88;94.54
75247;BME280;63844;50.042;19.224;2023-08-30T08:50:37;99446.94;;;17.90;94.61
75247;BME280;63844;50.042;19.224;2023-08-30T08:52:14;99446.80;;;17.91;94.45
75247;BME280;63844;50.042;19.224;2023-08-30T08:53:50;99447.41;;;17.90;94.49
75247;BME280;63844;50.042;19.224;2023-08-30T08:55:28;99449.35;;;17.89;94.56
75247;BME280;63844;50.042;19.224;2023-08-30T08:57:07;99450.23;;;17.87;94.41
75247;BME280;63844;50.042;19.224;2023-08-30T08:58:45;99452.19;;;17.87;94.37
75247;BME280;63844;50.042;19.224;2023-08-30T09:00:21;99452.75;;;17.89;94.43
75247;BME280;63844;50.042;19.224;2023-08-30T09:01:59;99450.02;;;17.91;94.45
75247;BME280;63844;50.042;19.224;2023-08-30T09:03:36;99450.05;;;17.93;94.45
75247;BME280;63844;50.042;19.224;2023-08-30T09:05:12;99451.23;;;17.94;94.46
75247;BME280;63844;50.042;19.224;2023-08-30T09:06:48;99452.27;;;17.96;94.31
75247;BME280;63844;50.042;19.224;2023-08-30T09:08:24;99451.74;;;17.98;94.27
75247;BME280;63844;50.042;19.224;2023-08-30T09:10:00;99453.63;;;17.99;94.37
75247;BME280;63844;50.042;19.224;2023-08-30T09:11:35;99452.22;;;17.99;94.20
75247;BME280;63844;50.042;19.224;2023-08-30T09:13:10;99453.02;;;17.98;94.74
75247;BME280;63844;50.042;19.224;2023-08-30T09:14:53;99453.75;;;17.98;94.46
75247;BME280;63844;50.042;19.224;2023-08-30T09:16:30;99451.28;;;17.99;94.21
75247;BME280;63844;50.042;19.224;2023-08-30T09:18:15;99448.04;;;18.02;94.17
75247;BME280;63844;50.042;19.224;2023-08-30T09:19:50;99441.03;;;18.04;94.49
75247;BME280;63844;50.042;19.224;2023-08-30T09:21:26;99445.11;;;18.06;94.48
75247;BME280;63844;50.042;19.224;2023-08-30T09:23:02;99439.46;;;18.07;94.55
75247;BME280;63844;50.042;19.224;2023-08-30T09:24:38;99442.80;;;18.10;94.64
75247;BME280;63844;50.042;19.224;2023-08-30T09:26:17;99439.33;;;18.13;94.36
75247;BME280;63844;50.042;19.224;2023-08-30T09:27:59;99440.30;;;18.14;94.43
75247;BME280;63844;50.042;19.224;2023-08-30T09:29:35;99438.23;;;18.17;94.56
75247;BME280;63844;50.042;19.224;2023-08-30T09:31:17;99437.98;;;18.20;94.48
75247;BME280;63844;50.042;19.224;2023-08-30T09:33:00;99437.55;;;18.23;94.77
75247;BME280;63844;50.042;19.224;2023-08-30T09:34:36;99440.67;;;18.22;94.77
75247;BME280;63844;50.042;19.224;2023-08-30T09:36:20;99438.44;;;18.23;94.70
75247;BME280;63844;50.042;19.224;2023-08-30T09:37:55;99442.98;;;18.26;94.57
75247;BME280;63844;50.042;19.224;2023-08-30T09:39:34;99442.36;;;18.25;94.96
75247;BME280;63844;50.042;19.224;2023-08-30T09:41:10;99443.02;;;18.22;94.63
75247;BME280;63844;50.042;19.224;2023-08-30T09:42:46;99447.29;;;18.22;94.56
75247;BME280;63844;50.042;19.224;2023-08-30T09:44:22;99442.52;;;18.23;94.90
75247;BME280;63844;50.042;19.224;2023-08-30T09:46:03;99441.52;;;18.24;94.52
75247;BME280;63844;50.042;19.224;2023-08-30T09:47:38;99443.23;;;18.27;94.40
75247;BME280;63844;50.042;19.224;2023-08-30T09:49:14;99447.33;;;18.27;94.26
75247;BME280;63844;50.042;19.224;2023-08-30T09:50:53;99447.73;;;18.27;94.19
75247;BME280;63844;50.042;19.224;2023-08-30T09:52:30;99446.38;;;18.26;94.60